Time;durP1;ratioP1;P1;durP2;ratioP2;P2;SDS_P1;SDS_P2;PMS_P1;PMS_P2;Temp;Humidity;BMP_temperature;BMP_pressure;BME280_temperature;BME280_humidity;BME280_pressure;Samples;Min_cycle;Max_cycle;Signal;HPM_P1;HPM_P2
2021/10/25 00:01:44;;;;;;;11.32;6.65;;;5.80;89.00;;;;;;5074946;28;20025;-36
2021/10/25 00:04:10;;;;;;;9.18;6.45;;;5.80;89.10;;;;;;5075183;28;20437;-36
2021/10/25 00:06:38;;;;;;;10.35;6.78;;;5.80;89.00;;;;;;5074611;28;20544;-37
2021/10/25 00:09:04;;;;;;;11.48;6.55;;;5.80;89.00;;;;;;5074824;28;20047;-37
2021/10/25 00:11:31;;;;;;;8.80;5.95;;;5.80;88.90;;;;;;5056937;28;20052;-37
2021/10/25 00:13:56;;;;;;;16.02;7.03;;;5.80;88.80;;;;;;5074531;28;20021;-37
2021/10/25 00:16:22;;;;;;;13.90;6.55;;;5.70;88.90;;;;;;5074810;28;20032;-37
2021/10/25 00:18:48;;;;;;;10.18;6.25;;;5.70;88.90;;;;;;5074480;28;20024;-37
2021/10/25 00:21:14;;;;;;;12.95;6.38;;;5.60;89.00;;;;;;5074676;28;20556;-37
2021/10/25 00:23:39;;;;;;;10.60;7.10;;;5.70;89.10;;;;;;5058113;28;20036;-39
2021/10/25 00:26:05;;;;;;;14.20;7.40;;;5.60;89.10;;;;;;5075320;28;20024;-38
2021/10/25 00:28:31;;;;;;;9.98;7.00;;;5.60;89.00;;;;;;5056294;28;20356;-37
2021/10/25 00:30:57;;;;;;;10.85;6.82;;;5.60;88.90;;;;;;5074275;28;20422;-38
2021/10/25 00:33:23;;;;;;;13.68;8.60;;;5.70;88.80;;;;;;5074188;28;20067;-36
2021/10/25 00:35:48;;;;;;;14.02;7.93;;;5.50;88.60;;;;;;5074087;28;20021;-36
2021/10/25 00:38:15;;;;;;;11.75;7.72;;;5.50;88.80;;;;;;5074505;28;20035;-36
2021/10/25 00:40:42;;;;;;;11.70;7.28;;;5.50;89.00;;;;;;5074827;28;20025;-38
2021/10/25 00:43:08;;;;;;;14.23;8.18;;;5.50;89.10;;;;;;5074033;28;20441;-36
2021/10/25 00:45:34;;;;;;;13.63;8.27;;;5.50;89.20;;;;;;5074032;28;20099;-36
2021/10/25 00:47:59;;;;;;;13.10;7.20;;;5.50;88.90;;;;;;5074001;28;20112;-36
2021/10/25 00:50:26;;;;;;;11.45;7.70;;;5.40;88.90;;;;;;5073836;28;20027;-37
2021/10/25 00:52:53;;;;;;;12.02;7.32;;;5.30;89.10;;;;;;5074124;28;20115;-37
2021/10/25 00:55:19;;;;;;;22.95;9.18;;;5.30;89.20;;;;;;5072792;28;20029;-36
2021/10/25 00:57:46;;;;;;;12.63;7.15;;;5.40;89.20;;;;;;5073662;28;20059;-37
2021/10/25 01:00:12;;;;;;;13.82;7.72;;;5.30;89.20;;;;;;5073641;28;20071;-37
2021/10/25 01:02:39;;;;;;;11.32;7.40;;;5.30;89.30;;;;;;5073607;28;20024;-37
2021/10/25 01:05:06;;;;;;;9.73;6.68;;;5.30;89.30;;;;;;5073008;28;20024;-37
2021/10/25 01:07:35;;;;;;;14.50;7.25;;;5.30;89.10;;;;;;5073134;28;20043;-37
2021/10/25 01:10:02;;;;;;;12.57;7.28;;;5.30;89.10;;;;;;5055257;28;20023;-37
2021/10/25 01:12:30;;;;;;;11.88;7.75;;;5.30;89.30;;;;;;5073433;28;20158;-37
2021/10/25 01:14:56;;;;;;;11.70;7.22;;;5.30;89.40;;;;;;5055158;28;20452;-37
2021/10/25 01:17:22;;;;;;;11.43;7.65;;;5.30;89.30;;;;;;5073285;28;20020;-37
2021/10/25 01:19:53;;;;;;;13.57;7.43;;;5.20;89.40;;;;;;5073307;28;20107;-38
2021/10/25 01:22:19;;;;;;;;;;;5.30;89.40;;;;;;5073650;28;20042;-37
2021/10/25 01:24:45;;;;;;;11.38;7.30;;;5.20;89.20;;;;;;5055268;28;19915;-37
2021/10/25 01:27:10;;;;;;;12.40;7.40;;;5.20;89.40;;;;;;5072952;28;20021;-37
2021/10/25 01:29:36;;;;;;;10.10;6.60;;;5.20;89.40;;;;;;5072964;28;20385;-37
2021/10/25 01:32:02;;;;;;;10.82;6.68;;;5.30;89.50;;;;;;5072926;28;20024;-37
2021/10/25 01:34:28;;;;;;;11.82;6.35;;;5.30;89.60;;;;;;5072807;28;20024;-37
2021/10/25 01:36:53;;;;;;;10.52;6.05;;;5.30;89.40;;;;;;5073095;28;20389;-37
2021/10/25 01:39:19;;;;;;;11.35;6.15;;;5.30;89.40;;;;;;5073072;28;20024;-36
2021/10/25 01:41:44;;;;;;;11.02;6.45;;;5.30;89.60;;;;;;5073170;28;20035;-36
2021/10/25 01:44:14;;;;;;;10.70;6.78;;;5.30;89.50;;;;;;5073154;28;20029;-36
2021/10/25 01:46:42;;;;;;;13.68;6.63;;;5.30;89.60;;;;;;5072815;28;20020;-36
2021/10/25 01:49:08;;;;;;;10.93;6.93;;;5.30;89.50;;;;;;5073044;28;20028;-37
2021/10/25 01:51:35;;;;;;;9.32;6.03;;;5.30;89.50;;;;;;5072746;28;20024;-44
2021/10/25 01:54:01;;;;;;;13.30;7.40;;;5.20;89.60;;;;;;5072680;28;20119;-37
2021/10/25 01:56:28;;;;;;;9.75;6.90;;;5.30;89.60;;;;;;5054734;28;20024;-37
2021/10/25 01:58:55;;;;;;;15.90;7.13;;;5.30;89.70;;;;;;5073002;28;20115;-37
2021/10/25 02:01:22;;;;;;;11.63;7.18;;;5.30;89.70;;;;;;5072778;28;20052;-36
2021/10/25 02:03:48;;;;;;;11.60;6.40;;;5.30;89.80;;;;;;5073382;28;20028;-37
2021/10/25 02:06:14;;;;;;;9.75;6.90;;;5.30;90.00;;;;;;5072120;28;20041;-36
2021/10/25 02:08:40;;;;;;;11.05;6.53;;;5.30;89.90;;;;;;5072971;28;20024;-36
2021/10/25 02:11:06;;;;;;;8.98;6.38;;;5.30;89.90;;;;;;5073088;28;20441;-36
2021/10/25 02:13:31;;;;;;;8.57;5.53;;;5.30;89.90;;;;;;5072670;28;20025;-38
2021/10/25 02:15:57;;;;;;;8.35;5.85;;;5.30;89.90;;;;;;5072578;28;20078;-36
2021/10/25 02:18:23;;;;;;;9.68;6.13;;;5.40;89.90;;;;;;5072535;28;20024;-36
2021/10/25 02:20:50;;;;;;;8.60;6.15;;;5.30;89.90;;;;;;5072582;28;20024;-36
2021/10/25 02:23:16;;;;;;;10.45;6.70;;;5.30;90.00;;;;;;5072449;28;20025;-38
2021/10/25 02:25:44;;;;;;;13.18;7.03;;;5.30;90.00;;;;;;5073286;28;20334;-36
2021/10/25 02:28:10;;;;;;;8.98;5.78;;;5.40;89.90;;;;;;5055219;28;20028;-36
2021/10/25 02:30:36;;;;;;;10.25;5.53;;;5.40;90.30;;;;;;5072384;28;20021;-36
2021/10/25 02:33:02;;;;;;;9.70;6.07;;;5.50;90.30;;;;;;5072640;28;20031;-36
2021/10/25 02:35:29;;;;;;;7.47;5.63;;;5.60;90.20;;;;;;5072360;28;20025;-36
2021/10/25 02:37:57;;;;;;;20.33;7.68;;;5.60;90.10;;;;;;5072301;28;20033;-37
2021/10/25 02:40:28;;;;;;;8.63;5.60;;;5.70;90.30;;;;;;5054370;28;20031;-37
2021/10/25 02:42:54;;;;;;;;;;;5.70;90.00;;;;;;5072688;28;20024;-36
2021/10/25 02:45:21;;;;;;;13.95;6.00;;;5.80;90.10;;;;;;5072501;28;20272;-37
2021/10/25 02:47:47;;;;;;;10.38;5.53;;;5.80;90.00;;;;;;5072470;28;20116;-37
2021/10/25 02:50:13;;;;;;;10.98;5.93;;;5.80;89.80;;;;;;5072249;28;20441;-37
2021/10/25 02:52:38;;;;;;;19.42;7.05;;;5.80;89.90;;;;;;5072250;28;20024;-36
2021/10/25 02:55:05;;;;;;;10.32;6.68;;;5.80;90.00;;;;;;5072574;28;20025;-37
2021/10/25 02:57:31;;;;;;;9.20;5.90;;;5.80;89.80;;;;;;5072403;28;20021;-37
2021/10/25 02:59:56;;;;;;;8.98;5.68;;;5.80;89.70;;;;;;5072416;28;20457;-36
2021/10/25 03:02:22;;;;;;;9.60;5.97;;;5.90;89.70;;;;;;5072336;28;20427;-37
2021/10/25 03:04:47;;;;;;;10.32;5.25;;;6.00;89.90;;;;;;5072029;28;20506;-36
2021/10/25 03:07:13;;;;;;;8.73;5.78;;;6.20;89.20;;;;;;5072543;28;20511;-36
2021/10/25 03:09:40;;;;;;;14.55;6.63;;;6.20;89.00;;;;;;5073094;28;20345;-36
2021/10/25 03:12:06;;;;;;;11.75;5.25;;;6.10;89.00;;;;;;5072079;28;20031;-36
2021/10/25 03:14:32;;;;;;;10.02;5.72;;;6.10;88.80;;;;;;5072093;28;20082;-38
2021/10/25 03:16:58;;;;;;;9.98;5.50;;;6.10;88.90;;;;;;5054206;28;20025;-39
2021/10/25 03:19:25;;;;;;;9.13;6.05;;;6.10;88.70;;;;;;5075086;28;20103;-37
2021/10/25 03:21:51;;;;;;;7.95;5.53;;;6.00;88.80;;;;;;5075555;28;20028;-37
2021/10/25 03:24:18;;;;;;;17.08;6.88;;;6.00;89.00;;;;;;5075747;28;20055;-36
2021/10/25 03:26:44;;;;;;;9.98;5.38;;;6.10;89.30;;;;;;5075663;28;20032;-37
2021/10/25 03:29:10;;;;;;;10.43;5.50;;;6.10;89.10;;;;;;5075456;28;20033;-37
2021/10/25 03:31:36;;;;;;;8.98;6.07;;;6.00;89.00;;;;;;5075436;28;20100;-41
2021/10/25 03:34:02;;;;;;;17.42;6.05;;;6.00;89.20;;;;;;5075373;28;20024;-36
2021/10/25 03:36:31;;;;;;;11.55;7.13;;;6.10;89.40;;;;;;5057366;28;20388;-37
2021/10/25 03:38:57;;;;;;;9.82;5.32;;;6.10;89.00;;;;;;5075216;28;20024;-37
2021/10/25 03:41:34;;;;;;;10.05;6.25;;;6.10;88.80;;;;;;5075397;28;20062;-36
2021/10/25 03:44:11;;;;;;;11.50;6.03;;;6.00;88.70;;;;;;5075423;28;20025;-36
2021/10/25 03:49:26;;;;;;;14.93;5.95;;;5.90;88.80;;;;;;5075087;28;20642;-37
2021/10/25 03:51:52;;;;;;;13.65;6.72;;;5.80;88.90;;;;;;5075267;28;20048;-37
2021/10/25 03:54:29;;;;;;;9.73;6.75;;;5.80;88.80;;;;;;5075370;28;20028;-36
2021/10/25 04:02:45;;;;;;;9.32;5.55;;;5.90;88.80;;;;;;5074523;28;20142;-37
2021/10/25 04:27:15;;;;;;;12.32;6.88;;;5.70;90.20;;;;;;5074456;28;20101;-36
2021/10/25 04:29:43;;;;;;;14.82;6.53;;;5.70;89.70;;;;;;5074336;28;20021;-37
2021/10/25 04:32:08;;;;;;;9.30;5.88;;;5.70;89.50;;;;;;5074195;28;20017;-36
2021/10/25 04:34:35;;;;;;;14.20;6.78;;;5.80;89.60;;;;;;5074334;28;20358;-36
2021/10/25 04:37:00;;;;;;;10.32;6.32;;;5.80;89.90;;;;;;5074134;28;20032;-36
2021/10/25 04:39:26;;;;;;;11.82;7.07;;;5.80;89.40;;;;;;5074041;28;20024;-36
2021/10/25 04:41:52;;;;;;;10.00;6.10;;;5.80;89.20;;;;;;5073987;28;20027;-37
2021/10/25 04:44:18;;;;;;;13.57;6.60;;;5.80;89.20;;;;;;5074109;28;20024;-36
2021/10/25 04:46:43;;;;;;;10.90;6.50;;;5.80;89.30;;;;;;5074191;28;20097;-36
2021/10/25 04:49:09;;;;;;;14.10;6.38;;;5.80;89.30;;;;;;5073876;28;20050;-38
2021/10/25 04:51:35;;;;;;;8.57;6.07;;;5.80;89.50;;;;;;5073805;28;20107;-37
2021/10/25 04:54:03;;;;;;;11.93;6.82;;;5.80;89.40;;;;;;5074205;28;20043;-37
2021/10/25 04:56:29;;;;;;;15.40;7.93;;;5.80;89.40;;;;;;5073571;28;20029;-38
2021/10/25 04:58:55;;;;;;;11.57;7.25;;;5.70;89.30;;;;;;5073724;28;20028;-37
2021/10/25 05:01:21;;;;;;;13.68;7.57;;;5.70;89.60;;;;;;5073551;28;20483;-37
2021/10/25 05:03:46;;;;;;;11.57;7.18;;;5.70;89.70;;;;;;5073702;28;20024;-37
2021/10/25 05:06:17;;;;;;;17.05;8.15;;;5.60;89.90;;;;;;5073180;28;20384;-37
2021/10/25 05:08:44;;;;;;;9.80;6.63;;;5.70;89.90;;;;;;5073280;28;20056;-41
2021/10/25 05:11:10;;;;;;;18.50;8.02;;;5.60;89.80;;;;;;5073832;28;20035;-37
2021/10/25 05:13:36;;;;;;;15.93;8.68;;;5.60;89.80;;;;;;5073625;28;20016;-38
2021/10/25 05:16:02;;;;;;;13.52;6.75;;;5.60;90.00;;;;;;5073589;28;20515;-37
2021/10/25 05:18:27;;;;;;;11.90;6.30;;;5.60;89.90;;;;;;5073681;28;20161;-38
2021/10/25 05:20:53;;;;;;;13.20;7.57;;;5.60;89.80;;;;;;5073011;28;20025;-37
2021/10/25 05:23:18;;;;;;;12.60;7.25;;;5.50;89.90;;;;;;5073907;28;20028;-37
2021/10/25 05:25:45;;;;;;;13.80;7.07;;;5.50;90.00;;;;;;5073174;28;20055;-37
2021/10/25 05:28:10;;;;;;;13.88;7.20;;;5.40;90.00;;;;;;5073241;28;20036;-37
2021/10/25 05:30:36;;;;;;;15.88;8.93;;;5.30;90.10;;;;;;5055508;28;20023;-37
2021/10/25 05:33:01;;;;;;;17.05;8.55;;;5.40;90.30;;;;;;5055107;28;20016;-37
2021/10/25 05:35:27;;;;;;;13.43;8.32;;;5.50;90.50;;;;;;5073178;28;20033;-38
2021/10/25 05:37:53;;;;;;;11.80;8.20;;;5.60;90.20;;;;;;5073283;28;20056;-38
2021/10/25 05:40:19;;;;;;;11.30;6.70;;;5.60;89.90;;;;;;5072209;28;20029;-37
2021/10/25 05:42:45;;;;;;;11.45;7.65;;;5.50;89.80;;;;;;5072878;28;20086;-37
2021/10/25 05:45:10;;;;;;;12.68;7.20;;;5.50;89.90;;;;;;5072958;28;20111;-37
2021/10/25 05:47:36;;;;;;;10.85;7.40;;;5.40;89.90;;;;;;5054626;28;20036;-37
2021/10/25 05:50:03;;;;;;;13.70;7.30;;;5.30;90.00;;;;;;5072822;28;20031;-37
2021/10/25 05:52:29;;;;;;;16.42;8.85;;;5.30;90.10;;;;;;5072589;28;20029;-37
2021/10/25 05:55:05;;;;;;;13.05;7.60;;;5.30;90.30;;;;;;5072649;28;20028;-38
2021/10/25 05:57:30;;;;;;;15.52;8.77;;;5.30;90.30;;;;;;5072972;28;20333;-37
2021/10/25 05:59:56;;;;;;;13.15;8.07;;;5.30;90.40;;;;;;5054387;28;20020;-38
2021/10/25 06:02:25;;;;;;;14.63;9.00;;;5.30;90.30;;;;;;5072835;28;20025;-37
2021/10/25 06:04:51;;;;;;;15.45;8.98;;;5.30;90.50;;;;;;5054443;28;20025;-38
2021/10/25 06:07:16;;;;;;;12.70;8.68;;;5.40;90.40;;;;;;5072303;28;20048;-37
2021/10/25 06:09:44;;;;;;;13.73;8.93;;;5.30;89.90;;;;;;5072868;28;20056;-37
2021/10/25 06:12:14;;;;;;;15.32;7.93;;;5.30;90.00;;;;;;5073495;28;20028;-37
2021/10/25 06:14:43;;;;;;;;;;;5.30;90.10;;;;;;5073274;28;20035;-37
2021/10/25 06:17:25;;;;;;;14.98;8.10;;;5.30;90.10;;;;;;5072725;28;19904;-37
2021/10/25 06:19:51;;;;;;;21.35;9.13;;;5.30;89.80;;;;;;5057319;28;20029;-36
2021/10/25 06:22:19;;;;;;;12.57;8.27;;;5.30;89.70;;;;;;5072686;28;20128;-36
2021/10/25 06:24:48;;;;;;;17.50;9.40;;;5.40;89.30;;;;;;5073119;28;20045;-36
2021/10/25 06:27:14;;;;;;;18.40;8.43;;;5.30;89.40;;;;;;5073061;28;20465;-38
2021/10/25 06:29:40;;;;;;;13.20;8.07;;;5.30;89.60;;;;;;5072945;28;20033;-38
2021/10/25 06:32:06;;;;;;;16.73;8.70;;;5.30;89.80;;;;;;5055124;28;20133;-37
2021/10/25 06:34:43;;;;;;;22.83;9.85;;;5.30;89.70;;;;;;5072768;28;20017;-37
2021/10/25 06:37:09;;;;;;;15.45;8.90;;;5.30;89.80;;;;;;5073135;28;20060;-36
2021/10/25 06:39:44;;;;;;;13.75;8.35;;;5.30;89.70;;;;;;5072886;28;20035;-36
2021/10/25 06:42:10;;;;;;;16.05;9.00;;;5.40;89.80;;;;;;5072717;28;20044;-38
2021/10/25 06:45:20;;;;;;;17.75;7.85;;;5.40;89.90;;;;;;5072417;28;20024;-37
2021/10/25 06:47:26;;;;;;;10.20;7.07;;;5.50;90.00;;;;;;5061727;28;20120;-39
2021/10/25 06:49:51;;;;;;;13.20;7.43;;;5.60;89.90;;;;;;5072629;28;20035;-37
2021/10/25 06:52:17;;;;;;;15.82;7.97;;;5.60;89.80;;;;;;5072474;28;20036;-36
2021/10/25 06:54:43;;;;;;;17.95;8.95;;;5.70;89.70;;;;;;5076461;28;20484;-36
2021/10/25 06:57:09;;;;;;;20.27;8.02;;;5.70;89.80;;;;;;5076006;28;20035;-37
2021/10/25 06:59:34;;;;;;;12.52;8.85;;;5.80;89.80;;;;;;5058290;28;20112;-38
2021/10/25 07:02:00;;;;;;;17.05;8.75;;;5.80;89.60;;;;;;5076273;28;20024;-38
2021/10/25 07:04:26;;;;;;;18.95;10.05;;;5.90;89.40;;;;;;5076223;28;20066;-36
2021/10/25 07:06:54;;;;;;;17.02;8.32;;;5.90;89.20;;;;;;5075309;28;20047;-37
2021/10/25 07:09:25;;;;;;;13.48;8.85;;;5.90;88.90;;;;;;5075512;28;20027;-37
2021/10/25 07:11:51;;;;;;;11.95;8.80;;;5.90;88.70;;;;;;5075205;28;20024;-37
2021/10/25 07:14:24;;;;;;;21.50;8.98;;;5.90;88.50;;;;;;5075227;28;20100;-37
2021/10/25 07:16:54;;;;;;;16.23;8.90;;;5.80;88.50;;;;;;5075048;28;20098;-37
2021/10/25 07:27:39;;;;;;;16.95;9.23;;;6.10;88.80;;;;;;5075233;28;20518;-37
2021/10/25 08:03:07;;;;;;;11.57;4.15;;;8.70;80.70;;;;;;5075177;28;20032;-37
2021/10/25 08:05:46;;;;;;;12.20;4.50;;;8.80;80.60;;;;;;5058299;28;20520;-37
2021/10/25 08:11:02;;;;;;;9.55;4.18;;;9.50;78.80;;;;;;5074424;28;20229;-37
2021/10/25 08:13:40;;;;;;;7.97;3.95;;;10.00;76.60;;;;;;5074227;28;20103;-37
2021/10/25 08:21:20;;;;;;;8.00;3.80;;;11.80;69.20;;;;;;5074210;28;20425;-37
2021/10/25 08:23:47;;;;;;;17.85;5.18;;;11.80;69.10;;;;;;5073343;28;20112;-37
2021/10/25 08:26:12;;;;;;;13.98;4.55;;;12.00;70.20;;;;;;5073676;28;20028;-37
2021/10/25 08:28:39;;;;;;;11.43;4.22;;;13.20;65.60;;;;;;5073791;28;20088;-37
2021/10/25 08:31:07;;;;;;;13.32;3.83;;;12.30;67.90;;;;;;5073416;28;20025;-37
2021/10/25 08:36:25;;;;;;;7.32;4.05;;;13.30;63.30;;;;;;5073474;28;20032;-36
2021/10/25 08:41:35;;;;;;;18.10;4.72;;;12.80;64.80;;;;;;5073782;28;20086;-37
2021/10/25 08:44:05;;;;;;;5.85;3.83;;;12.90;65.70;;;;;;5073502;28;20099;-37
2021/10/25 08:46:31;;;;;;;6.07;3.53;;;13.00;64.60;;;;;;5073797;28;20039;-37
2021/10/25 08:48:57;;;;;;;6.65;3.83;;;12.60;66.00;;;;;;5073988;28;20021;-37
2021/10/25 08:51:24;;;;;;;15.90;4.13;;;12.70;66.30;;;;;;5073358;28;20038;-37
2021/10/25 08:53:50;;;;;;;5.97;3.55;;;13.50;63.70;;;;;;5073358;28;20025;-37
2021/10/25 08:57:08;;;;;;;9.07;3.95;;;14.10;61.20;;;;;;5073687;28;20090;-38
2021/10/25 08:59:35;;;;;;;9.95;3.50;;;14.50;58.80;;;;;;5075060;28;20111;-37
2021/10/25 09:02:06;;;;;;;7.38;3.45;;;13.90;60.70;;;;;;5055795;28;20035;-37
2021/10/25 09:04:32;;;;;;;7.03;3.10;;;13.90;60.60;;;;;;5073795;28;20055;-37
2021/10/25 09:06:58;;;;;;;5.78;3.28;;;13.50;62.10;;;;;;5073537;28;20133;-36
2021/10/25 09:09:27;;;;;;;7.53;4.18;;;13.60;62.10;;;;;;5073518;28;20040;-36
2021/10/25 09:11:58;;;;;;;9.65;2.97;;;13.30;63.50;;;;;;5073294;28;20075;-36
2021/10/25 09:14:24;;;;;;;8.20;3.17;;;13.50;61.30;;;;;;5073226;28;20024;-37
2021/10/25 09:17:02;;;;;;;8.57;3.63;;;13.80;60.90;;;;;;5072079;28;20020;-36
2021/10/25 09:19:32;;;;;;;7.18;2.83;;;13.70;61.50;;;;;;5054885;28;20029;-37
2021/10/25 09:22:09;;;;;;;;;;;14.20;60.00;;;;;;5055019;28;20115;-39
2021/10/25 09:24:35;;;;;;;8.25;2.78;;;15.00;57.50;;;;;;5072565;28;20357;-37
2021/10/25 09:27:05;;;;;;;7.78;2.85;;;14.50;58.50;;;;;;5054708;28;20105;-37
2021/10/25 09:29:34;;;;;;;6.90;2.33;;;14.10;60.60;;;;;;5072857;28;20017;-36
2021/10/25 09:32:07;;;;;;;7.55;2.53;;;14.00;59.80;;;;;;5072982;28;20039;-36
2021/10/25 09:34:40;;;;;;;9.45;2.97;;;14.60;58.30;;;;;;5072892;28;20037;-36
2021/10/25 09:37:11;;;;;;;6.65;3.22;;;15.10;56.50;;;;;;5054912;28;20411;-36
2021/10/25 09:39:47;;;;;;;6.53;2.40;;;14.70;57.00;;;;;;5072463;28;20032;-36
2021/10/25 09:50:19;;;;;;;4.63;2.95;;;13.30;62.00;;;;;;5072937;28;20059;-38
2021/10/25 09:52:45;;;;;;;6.18;2.75;;;13.40;62.80;;;;;;5054110;28;20032;-37
2021/10/25 09:55:19;;;;;;;4.82;3.17;;;14.10;60.20;;;;;;5072614;28;20389;-37
2021/10/25 10:00:14;;;;;;;5.63;2.28;;;13.90;59.60;;;;;;5072591;28;20029;-36
2021/10/25 10:02:41;;;;;;;5.45;3.05;;;14.00;60.80;;;;;;5072605;28;20541;-38
2021/10/25 10:05:10;;;;;;;4.80;2.92;;;14.10;59.80;;;;;;5072625;28;20082;-38
2021/10/25 10:07:36;;;;;;;3.70;2.13;;;14.20;60.10;;;;;;5072580;28;20029;-38
2021/10/25 10:10:05;;;;;;;6.45;2.70;;;14.20;59.60;;;;;;5072566;28;20097;-38
2021/10/25 10:12:31;;;;;;;4.82;2.42;;;14.20;59.30;;;;;;5072373;28;20013;-38
2021/10/25 10:15:03;;;;;;;5.07;2.40;;;14.00;60.10;;;;;;5072745;28;20040;-37
2021/10/25 10:17:49;;;;;;;7.07;2.95;;;13.50;61.60;;;;;;5072638;28;20492;-37
2021/10/25 10:20:24;;;;;;;6.18;2.80;;;13.70;60.90;;;;;;5072255;28;20020;-37
2021/10/25 10:22:53;;;;;;;9.00;3.03;;;13.80;60.30;;;;;;5072656;28;20027;-37
2021/10/25 10:25:27;;;;;;;5.43;2.60;;;13.90;60.70;;;;;;5072020;28;20036;-38
2021/10/25 10:28:05;;;;;;;6.18;3.28;;;14.50;59.20;;;;;;5075207;28;20024;-38
2021/10/25 10:30:32;;;;;;;6.20;3.38;;;14.60;59.20;;;;;;5076752;28;20031;-38
2021/10/25 10:33:00;;;;;;;6.72;2.28;;;14.40;59.80;;;;;;5076548;28;20100;-38
2021/10/25 10:35:26;;;;;;;3.78;2.20;;;14.30;59.40;;;;;;5076158;28;20094;-38
2021/10/25 10:38:00;;;;;;;5.57;3.08;;;14.00;60.80;;;;;;5058308;28;20028;-38
2021/10/25 10:40:42;;;;;;;3.97;2.42;;;13.90;61.00;;;;;;5076057;28;20020;-38
2021/10/25 10:43:23;;;;;;;6.40;2.97;;;14.30;60.20;;;;;;5076584;28;20503;-38
2021/10/25 10:46:05;;;;;;;7.70;3.05;;;14.70;59.60;;;;;;5076337;28;20021;-36
2021/10/25 10:48:35;;;;;;;6.95;2.58;;;14.70;59.60;;;;;;5076009;28;20471;-37
2021/10/25 10:51:05;;;;;;;3.42;2.40;;;14.60;60.20;;;;;;5075981;28;20024;-36
2021/10/25 10:53:34;;;;;;;6.20;2.70;;;14.50;60.80;;;;;;5075571;28;20020;-39
2021/10/25 10:56:06;;;;;;;6.30;2.72;;;14.30;61.50;;;;;;5075934;28;20031;-36
2021/10/25 11:01:18;;;;;;;10.40;3.03;;;14.30;62.50;;;;;;5075560;28;20472;-37
2021/10/25 11:03:44;;;;;;;4.30;2.80;;;14.50;61.50;;;;;;5075963;28;20035;-38
2021/10/25 11:06:16;;;;;;;10.73;3.55;;;14.30;61.70;;;;;;5075488;28;20055;-38
2021/10/25 11:08:44;;;;;;;4.47;2.35;;;14.50;61.60;;;;;;5075853;28;20033;-37
2021/10/25 11:11:24;;;;;;;4.50;2.40;;;14.30;62.20;;;;;;5058298;28;20020;-39
2021/10/25 11:13:58;;;;;;;7.38;2.80;;;14.30;62.60;;;;;;5024983;28;20033;-38
2021/10/25 11:16:32;;;;;;;5.40;2.75;;;14.30;62.40;;;;;;5075107;28;20028;-38
2021/10/25 11:19:00;;;;;;;6.13;2.60;;;14.90;61.00;;;;;;5075541;28;20114;-38
2021/10/25 11:21:30;;;;;;;10.40;2.80;;;15.30;59.30;;;;;;5075106;28;20021;-38
2021/10/25 11:24:05;;;;;;;5.65;2.78;;;15.30;59.80;;;;;;5075014;28;20055;-38
2021/10/25 11:26:42;;;;;;;5.03;2.63;;;14.70;61.70;;;;;;5075020;28;20048;-38
2021/10/25 11:29:12;;;;;;;7.35;2.58;;;14.80;62.20;;;;;;5074810;28;20052;-48
2021/10/25 11:31:44;;;;;;;6.50;2.90;;;14.60;63.40;;;;;;5074939;28;20021;-37
2021/10/25 11:34:28;;;;;;;7.45;3.22;;;14.50;63.80;;;;;;5075380;28;20524;-37
2021/10/25 11:37:02;;;;;;;4.75;2.90;;;14.50;63.70;;;;;;5077581;28;20104;-38
2021/10/25 11:39:46;;;;;;;7.40;2.20;;;14.70;63.60;;;;;;5056913;28;20052;-38
2021/10/25 11:42:17;;;;;;;5.15;2.50;;;14.60;64.30;;;;;;5075222;28;20028;-38
2021/10/25 11:44:44;;;;;;;5.13;3.05;;;14.50;64.00;;;;;;5074895;28;20032;-38
2021/10/25 11:47:26;;;;;;;5.50;3.72;;;14.30;65.20;;;;;;5074855;28;20448;-38
2021/10/25 11:50:21;;;;;;;4.75;2.38;;;14.60;64.90;;;;;;5074842;28;20102;-38
2021/10/25 11:53:07;;;;;;;7.55;2.30;;;14.80;64.20;;;;;;5075021;28;20552;-37
2021/10/25 11:55:36;;;;;;;4.75;2.78;;;14.40;66.30;;;;;;5074521;28;20099;-37
2021/10/25 11:58:02;;;;;;;6.35;2.50;;;14.60;65.90;;;;;;5057131;28;20415;-38
2021/10/25 12:00:30;;;;;;;4.82;3.42;;;14.90;64.40;;;;;;5074333;28;20028;-38
2021/10/25 12:03:03;;;;;;;4.57;3.40;;;14.90;63.80;;;;;;5074266;28;20157;-38
2021/10/25 12:05:29;;;;;;;5.53;3.50;;;15.00;63.50;;;;;;5074325;28;20059;-36
2021/10/25 12:07:59;;;;;;;5.93;2.95;;;14.90;63.20;;;;;;5074343;28;20388;-37
2021/10/25 12:10:26;;;;;;;3.28;2.20;;;15.10;63.10;;;;;;5074069;28;20071;-39
2021/10/25 12:12:59;;;;;;;3.80;2.50;;;15.00;62.30;;;;;;5074749;28;20422;-37
2021/10/25 12:15:26;;;;;;;5.32;2.83;;;15.20;60.60;;;;;;5074461;28;20086;-37
2021/10/25 12:18:00;;;;;;;3.90;2.20;;;15.10;58.90;;;;;;5073457;28;20020;-37
2021/10/25 12:20:30;;;;;;;6.07;2.53;;;15.00;59.70;;;;;;5073802;28;20024;-36
2021/10/25 12:23:15;;;;;;;2.67;2.03;;;15.40;58.70;;;;;;5073958;28;20101;-39
2021/10/25 12:25:41;;;;;;;5.75;2.70;;;15.50;57.90;;;;;;5056268;28;20111;-37
2021/10/25 12:28:17;;;;;;;7.85;2.83;;;15.50;57.60;;;;;;5073388;28;20031;-38
2021/10/25 12:30:43;;;;;;;3.15;2.45;;;15.50;57.00;;;;;;5073603;28;20048;-38
2021/10/25 12:33:11;;;;;;;3.92;2.03;;;15.40;56.80;;;;;;5073790;28;20017;-37
2021/10/25 12:35:41;;;;;;;6.80;2.55;;;15.10;58.10;;;;;;5073686;28;20043;-37
2021/10/25 12:38:11;;;;;;;5.80;4.30;;;15.00;57.70;;;;;;5073901;28;20424;-37
2021/10/25 12:40:57;;;;;;;;;;;15.30;57.40;;;;;;5073947;28;20035;-38
2021/10/25 12:43:23;;;;;;;3.45;2.75;;;15.10;57.70;;;;;;5059282;28;19954;-38
2021/10/25 12:45:59;;;;;;;7.38;3.35;;;15.20;57.30;;;;;;5073365;28;20419;-37
2021/10/25 12:48:25;;;;;;;4.88;2.70;;;15.10;57.50;;;;;;5073358;28;20044;-38
2021/10/25 12:51:01;;;;;;;6.07;3.00;;;15.20;57.60;;;;;;5073364;28;20028;-38
2021/10/25 12:53:30;;;;;;;4.18;2.15;;;15.00;58.30;;;;;;5073350;28;20020;-37
2021/10/25 12:55:57;;;;;;;5.13;2.83;;;15.10;58.70;;;;;;5072956;28;20062;-37
2021/10/25 12:58:24;;;;;;;7.25;3.00;;;15.30;58.30;;;;;;5073016;28;20030;-38
2021/10/25 13:00:50;;;;;;;9.35;3.50;;;15.30;58.10;;;;;;5055122;28;20083;-37
2021/10/25 13:03:16;;;;;;;4.70;1.92;;;15.20;58.50;;;;;;5073198;28;20052;-37
2021/10/25 13:05:49;;;;;;;6.20;2.30;;;15.20;58.10;;;;;;5072966;28;20199;-38
2021/10/25 13:08:15;;;;;;;7.47;2.55;;;15.00;59.00;;;;;;5073450;28;20099;-38
2021/10/25 13:10:42;;;;;;;3.42;2.47;;;15.00;59.10;;;;;;5073252;28;20028;-38
2021/10/25 13:13:10;;;;;;;5.75;2.95;;;15.00;59.70;;;;;;5073026;28;20117;-37
2021/10/25 13:15:37;;;;;;;9.45;3.42;;;15.20;59.30;;;;;;5072670;28;20108;-37
2021/10/25 13:18:08;;;;;;;4.20;2.35;;;15.00;60.00;;;;;;5072630;28;20052;-37
2021/10/25 13:20:39;;;;;;;4.80;2.70;;;15.10;59.20;;;;;;5073056;28;20067;-38
2021/10/25 13:23:05;;;;;;;5.75;2.70;;;15.10;59.30;;;;;;5072851;28;20569;-38
2021/10/25 13:25:32;;;;;;;6.13;2.38;;;14.90;60.20;;;;;;5073283;28;20061;-37
2021/10/25 13:27:59;;;;;;;3.80;2.00;;;15.00;59.90;;;;;;5072722;28;20321;-37
2021/10/25 13:30:26;;;;;;;3.88;2.35;;;14.90;59.70;;;;;;5072666;28;20021;-37
2021/10/25 13:32:53;;;;;;;4.47;1.95;;;14.90;60.10;;;;;;5072843;28;20071;-37
2021/10/25 13:35:19;;;;;;;4.05;2.67;;;14.90;60.10;;;;;;5072297;28;20025;-38
2021/10/25 13:37:51;;;;;;;5.50;2.78;;;14.80;60.40;;;;;;5072623;28;20480;-38
2021/10/25 13:40:17;;;;;;;5.93;2.40;;;14.90;60.60;;;;;;5072906;28;20029;-38
2021/10/25 13:42:43;;;;;;;5.95;3.30;;;14.80;60.60;;;;;;5073809;28;20116;-37
2021/10/25 13:45:09;;;;;;;5.85;2.00;;;14.70;60.40;;;;;;5072159;28;20108;-38
2021/10/25 13:47:35;;;;;;;4.07;2.60;;;14.80;60.50;;;;;;5054122;28;20480;-38
2021/10/25 13:50:01;;;;;;;3.30;2.15;;;15.00;60.40;;;;;;5072610;28;20433;-38
2021/10/25 13:52:26;;;;;;;3.60;2.13;;;14.80;60.20;;;;;;5072923;28;20037;-38
2021/10/25 13:54:54;;;;;;;4.72;2.50;;;14.70;60.90;;;;;;5072709;28;20028;-38
2021/10/25 13:57:22;;;;;;;3.95;2.13;;;14.50;61.40;;;;;;5054418;28;20384;-38
2021/10/25 13:59:48;;;;;;;6.30;2.83;;;14.50;61.60;;;;;;5072600;28;20103;-38
2021/10/25 14:02:15;;;;;;;4.28;2.20;;;14.60;61.00;;;;;;5072187;28;20024;-37
2021/10/25 14:04:53;;;;;;;3.95;2.33;;;14.50;61.30;;;;;;5073134;28;20024;-37
2021/10/25 14:07:20;;;;;;;6.40;2.58;;;14.30;61.90;;;;;;5072650;28;20040;-37
2021/10/25 14:10:01;;;;;;;5.55;2.50;;;14.30;62.30;;;;;;5072421;28;20045;-38
2021/10/25 14:12:28;;;;;;;;;;;14.40;61.90;;;;;;5073683;28;20491;-37
2021/10/25 14:17:51;;;;;;;6.35;2.70;;;14.30;62.60;;;;;;5054244;28;20060;-37
2021/10/25 14:20:19;;;;;;;11.27;2.67;;;14.20;63.00;;;;;;5072110;28;20031;-37
2021/10/25 14:22:46;;;;;;;5.30;2.55;;;14.30;63.10;;;;;;5037208;28;20208;-37
2021/10/25 14:25:12;;;;;;;4.13;2.50;;;14.30;63.50;;;;;;5071702;28;20481;-37
2021/10/25 14:27:38;;;;;;;8.75;2.53;;;14.30;63.30;;;;;;5071840;28;20031;-37
2021/10/25 14:30:06;;;;;;;9.10;2.95;;;14.30;63.70;;;;;;5072075;28;20028;-37
2021/10/25 14:32:32;;;;;;;5.40;2.20;;;14.30;64.20;;;;;;5072734;28;20063;-37
2021/10/25 14:34:58;;;;;;;12.80;2.58;;;14.30;64.20;;;;;;5054636;28;20021;-37
2021/10/25 14:37:35;;;;;;;4.05;2.60;;;14.30;64.50;;;;;;5072405;28;20032;-38